Date,TemperatureHighF,TemperatureAvgF,TemperatureLowF,DewpointHighF,DewpointAvgF,DewpointLowF,HumidityHigh,HumidityAvg,HumidityLow,PressureMaxIn,PressureMinIn,WindSpeedMaxMPH,WindSpeedAvgMPH,GustSpeedMaxMPH,PrecipitationSumIn
2013-2-1,17.0,10.9,7.0,6.0,3.2,0.0,79,70,59,0.00,40.00,18,11,26,0.00
2013-2-2,26.0,17.7,11.0,20.0,12.8,4.0,89,81,73,0.00,40.00,12,6,18,0.00
2013-2-3,22.0,15.4,8.0,15.0,10.4,5.0,87,80,64,0.00,40.00,13,5,22,0.00
2013-2-4,26.0,20.1,16.0,20.0,16.5,12.0,92,85,74,0.00,40.00,7,4,14,0.00
2013-2-5,31.0,21.9,7.0,26.0,18.3,5.0,93,86,60,0.00,40.00,16,4,20,0.00
2013-2-6,38.0,25.8,14.0,26.0,15.1,11.0,90,65,37,0.00,40.00,12,4,17,0.00
2013-2-7,41.0,30.2,21.0,30.0,22.4,15.0,94,73,54,0.00,40.00,15,8,21,0.00
2013-2-8,34.0,28.6,18.0,31.0,23.1,13.0,96,80,57,0.00,40.00,12,5,20,0.00
2013-2-9,32.0,22.0,10.0,21.0,15.3,8.0,91,76,54,0.00,40.00,11,5,15,0.00
2013-2-10,42.0,31.9,22.0,41.0,26.2,19.0,95,79,61,0.00,40.00,14,8,17,0.00
2013-2-11,45.0,36.7,31.0,44.0,28.4,20.0,96,72,61,0.00,40.00,23,14,40,0.00
2013-2-12,37.0,30.5,28.0,23.0,21.0,20.0,73,67,57,0.00,40.00,20,10,29,0.00
2013-2-13,43.0,31.4,25.0,28.0,22.4,20.0,85,70,46,0.00,40.00,11,4,15,0.00
2013-2-14,41.0,35.0,29.0,34.0,29.2,23.0,91,79,61,0.00,40.00,17,9,30,0.00
2013-2-15,33.0,28.0,19.0,23.0,17.3,11.0,79,64,46,0.00,40.00,17,8,22,0.00
2013-2-16,24.0,19.7,12.0,19.0,12.9,3.0,88,75,48,0.00,40.00,19,8,29,0.00
2013-2-17,28.0,18.4,11.0,12.0,8.6,5.0,89,67,41,0.00,40.00,10,5,17,0.00
2013-2-18,52.0,34.8,18.0,40.0,24.0,12.0,87,65,47,0.00,40.00,20,10,35,0.00
2013-2-19,44.0,24.6,15.0,42.0,20.2,9.0,95,82,64,0.00,40.00,24,15,35,0.00
2013-2-20,23.0,18.8,15.0,16.0,13.3,10.0,85,78,70,0.00,40.00,19,11,25,0.00
2013-2-21,26.0,22.2,20.0,18.0,15.5,14.0,80,74,67,0.00,40.00,17,8,24,0.00
2013-2-22,34.0,27.2,20.0,33.0,25.3,15.0,97,92,79,0.00,40.00,21,10,30,0.00
2013-2-23,32.0,28.4,25.0,29.0,19.5,16.0,89,69,56,0.00,40.00,12,8,21,0.00
2013-2-24,35.0,28.9,24.0,24.0,21.0,17.0,85,72,61,0.00,40.00,12,6,17,0.00
2013-2-25,42.0,29.9,17.0,28.0,22.2,16.0,95,75,48,0.00,40.00,11,4,15,0.00
2013-2-26,33.0,30.6,29.0,32.0,26.0,23.0,96,83,72,0.00,40.00,26,14,35,0.00
2013-2-27,35.0,33.2,31.0,35.0,32.3,30.0,98,96,94,0.00,40.00,10,6,15,0.00
2013-2-28,40.0,34.2,31.0,33.0,30.2,27.0,97,86,67,0.00,40.00,9,4,15,0.00